createdAt,value
2019-03-10T00:00:27.085Z,1
2019-03-10T00:05:29.425Z,2
2019-03-10T00:10:31.918Z,1
2019-03-10T00:15:34.439Z,1
2019-03-10T00:20:36.824Z,1
2019-03-10T00:25:39.282Z,1
2019-03-10T00:30:41.758Z,2
2019-03-10T00:35:44.223Z,1
2019-03-10T00:40:46.769Z,1
2019-03-10T00:45:49.127Z,2
2019-03-10T00:50:51.570Z,2
2019-03-10T00:55:54.159Z,2
2019-03-10T01:00:56.509Z,3
2019-03-10T01:05:59.179Z,1
2019-03-10T01:11:01.481Z,2
2019-03-10T01:16:03.904Z,2
2019-03-10T01:21:06.333Z,1
2019-03-10T01:26:08.877Z,1
2019-03-10T01:31:11.638Z,2
2019-03-10T01:46:18.643Z,2
2019-03-10T01:51:21.136Z,2
2019-03-10T01:56:23.618Z,2
2019-03-10T02:01:26.003Z,2
2019-03-10T02:06:28.438Z,2
2019-03-10T02:11:30.934Z,2
2019-03-10T02:16:33.509Z,3
2019-03-10T02:21:35.829Z,6
2019-03-10T02:26:38.370Z,4
2019-03-10T02:31:41.077Z,5
2019-03-10T02:36:48.255Z,6
2019-03-10T02:41:45.642Z,3
2019-03-10T02:46:48.164Z,3
2019-03-10T02:51:50.599Z,3
2019-03-10T02:56:53.105Z,5
2019-03-10T03:06:57.936Z,3
2019-03-10T03:12:05.384Z,3
2019-03-10T03:17:07.829Z,5
2019-03-10T03:22:05.306Z,3
2019-03-10T03:27:07.834Z,4
2019-03-10T03:32:10.215Z,4
2019-03-10T03:37:12.697Z,4
2019-03-10T03:42:15.140Z,2
2019-03-10T03:47:17.687Z,3
2019-03-10T03:52:20.075Z,4
2019-03-10T03:57:22.520Z,4
2019-03-10T04:02:24.977Z,3
2019-03-10T04:07:27.419Z,5
2019-03-10T04:12:29.898Z,4
2019-03-10T04:17:32.426Z,3
2019-03-10T04:22:34.811Z,6
2019-03-10T04:27:37.321Z,3
2019-03-10T04:32:39.705Z,4
2019-03-10T04:37:42.164Z,3
2019-03-10T04:42:44.597Z,3
2019-03-10T04:47:47.104Z,3
2019-03-10T04:52:49.554Z,3
2019-03-10T04:57:52.053Z,2
2019-03-10T05:02:54.447Z,3
2019-03-10T05:07:56.932Z,3
2019-03-10T05:18:01.833Z,3
2019-03-10T05:23:04.298Z,4
2019-03-10T05:28:06.842Z,3
2019-03-10T05:33:09.204Z,4
2019-03-10T05:38:11.806Z,4
2019-03-10T05:43:14.105Z,4
2019-03-10T05:48:16.616Z,3
2019-03-10T05:53:19.083Z,3
2019-03-10T05:58:21.472Z,5
2019-03-10T06:03:23.934Z,5
2019-03-10T06:08:26.380Z,4
2019-03-10T06:13:28.846Z,6
2019-03-10T06:18:31.341Z,4
2019-03-10T06:23:33.840Z,4
2019-03-10T06:28:36.310Z,4
2019-03-10T06:33:38.666Z,3
2019-03-10T06:38:41.164Z,4
2019-03-10T06:43:43.578Z,3
2019-03-10T06:48:46.036Z,3
2019-03-10T06:53:48.500Z,3
2019-03-10T06:58:51.021Z,3
2019-03-10T07:03:53.449Z,4
2019-03-10T07:08:55.909Z,4
2019-03-10T07:13:58.322Z,3
2019-03-10T07:19:00.818Z,5
2019-03-10T07:24:03.262Z,3
2019-03-10T07:29:05.734Z,4
2019-03-10T07:34:08.176Z,3
2019-03-10T07:39:10.717Z,3
2019-03-10T07:44:13.127Z,2
2019-03-10T07:49:17.955Z,2
2019-03-10T07:54:17.989Z,3
2019-03-10T07:59:20.517Z,2
2019-03-10T08:04:22.903Z,2
2019-03-10T08:09:25.354Z,2
2019-03-10T08:14:27.825Z,3
2019-03-10T08:19:30.270Z,3
2019-03-10T08:24:32.731Z,1
2019-03-10T08:29:35.202Z,2
2019-03-10T08:34:37.643Z,4
2019-03-10T08:39:40.093Z,3
2019-03-10T08:44:42.570Z,3
2019-03-10T08:49:45.655Z,3
2019-03-10T08:54:47.509Z,5
2019-03-10T08:59:49.937Z,3
2019-03-10T09:04:52.399Z,3
2019-03-10T09:09:54.854Z,4
2019-03-10T09:14:57.337Z,4
2019-03-10T09:19:59.777Z,3
2019-03-10T09:25:02.231Z,4
2019-03-10T09:30:04.777Z,2
2019-03-10T09:35:07.150Z,3
2019-03-10T09:40:09.650Z,3
2019-03-10T09:45:12.045Z,3
2019-03-10T09:50:14.498Z,12
2019-03-10T09:55:17.000Z,3
2019-03-10T10:00:19.516Z,6
2019-03-10T10:05:21.940Z,4
2019-03-10T10:10:24.387Z,4
2019-03-10T10:15:26.791Z,3
2019-03-10T10:20:29.350Z,3
2019-03-10T10:25:31.748Z,4
2019-03-10T10:30:34.260Z,3
2019-03-10T10:35:36.615Z,2
2019-03-10T10:40:39.139Z,4
2019-03-10T10:45:41.524Z,5
2019-03-10T10:50:44.010Z,5
2019-03-10T10:55:46.527Z,5
2019-03-10T11:00:48.982Z,4
2019-03-10T11:05:51.387Z,10
2019-03-10T11:10:53.873Z,10
2019-03-10T11:15:56.312Z,7
2019-03-10T11:20:58.747Z,1
2019-03-10T11:26:01.291Z,1
2019-03-10T11:31:03.728Z,1
2019-03-10T11:36:06.101Z,1
2019-03-10T11:41:08.573Z,0
2019-03-10T11:46:11.019Z,0
2019-03-10T11:51:13.490Z,0
2019-03-10T11:56:15.925Z,0
2019-03-10T12:01:18.409Z,2
2019-03-10T12:06:20.864Z,0
2019-03-10T12:11:23.383Z,0
2019-03-10T12:16:25.829Z,1
2019-03-10T12:21:28.225Z,0
2019-03-10T12:26:30.774Z,0
2019-03-10T12:31:33.150Z,0
2019-03-10T12:36:35.785Z,0
2019-03-10T12:41:38.066Z,0
2019-03-10T12:46:40.509Z,0
2019-03-10T12:51:42.973Z,0
2019-03-10T12:56:45.423Z,1
2019-03-10T13:01:47.945Z,0
2019-03-10T13:06:50.355Z,1
2019-03-10T13:11:52.858Z,0
2019-03-10T13:16:55.292Z,0
2019-03-10T13:21:57.829Z,0
2019-03-10T13:27:00.179Z,0
2019-03-10T13:32:02.738Z,0
2019-03-10T13:37:05.086Z,2
2019-03-10T13:42:07.554Z,0
2019-03-10T13:47:10.009Z,0
2019-03-10T13:52:12.466Z,0
2019-03-10T13:57:14.916Z,0
2019-03-10T14:02:17.389Z,2
2019-03-10T14:07:19.819Z,10
2019-03-10T14:12:22.329Z,1
2019-03-10T14:17:24.729Z,0
2019-03-10T14:22:27.274Z,0
2019-03-10T14:27:29.667Z,0
2019-03-10T14:32:32.118Z,0
2019-03-10T14:37:34.570Z,0
2019-03-10T14:42:37.046Z,0
2019-03-10T14:47:39.502Z,0
2019-03-10T14:52:41.945Z,0
2019-03-10T14:57:44.413Z,0
2019-03-10T15:02:47.587Z,1
2019-03-10T15:07:49.328Z,1
2019-03-10T15:12:51.828Z,0
2019-03-10T15:17:54.233Z,0
2019-03-10T15:27:59.139Z,1
2019-03-10T15:33:01.622Z,1
2019-03-10T15:38:04.075Z,0
2019-03-10T15:43:06.536Z,1
2019-03-10T15:48:08.963Z,1
2019-03-10T15:53:11.416Z,1
2019-03-10T15:58:13.886Z,1
2019-03-10T16:03:16.488Z,1
2019-03-10T16:08:18.824Z,1
2019-03-10T16:13:21.317Z,1
2019-03-10T16:18:23.759Z,1
2019-03-10T16:23:26.177Z,1
2019-03-10T16:28:28.635Z,1
2019-03-10T16:33:31.161Z,1
2019-03-10T16:38:33.584Z,1
2019-03-10T16:43:36.062Z,1
2019-03-10T16:48:38.460Z,1
2019-03-10T16:53:41.894Z,1
2019-03-10T16:58:43.377Z,1
2019-03-10T17:03:45.858Z,1
2019-03-10T17:08:48.349Z,1
2019-03-10T17:13:50.816Z,2
2019-03-10T17:18:53.199Z,0
2019-03-10T17:23:55.668Z,1
2019-03-10T17:28:58.184Z,1
2019-03-10T17:34:00.650Z,1
2019-03-10T17:39:03.045Z,1
2019-03-10T17:44:05.832Z,1
2019-03-10T17:49:07.951Z,1
2019-03-10T17:54:10.409Z,2
2019-03-10T17:59:12.928Z,1
2019-03-10T18:04:15.322Z,1
2019-03-10T18:09:17.775Z,2
2019-03-10T18:14:20.533Z,2
2019-03-10T18:19:22.706Z,1
2019-03-10T18:24:25.138Z,2
2019-03-10T18:29:27.612Z,1
2019-03-10T18:34:30.065Z,1
2019-03-10T18:39:32.536Z,1
2019-03-10T18:44:35.277Z,1
2019-03-10T18:49:37.594Z,1
2019-03-10T18:54:39.897Z,1
2019-03-10T18:59:42.337Z,0
2019-03-10T19:04:44.923Z,1
2019-03-10T19:09:47.394Z,0
2019-03-10T19:14:50.129Z,0
2019-03-10T19:19:52.168Z,0
2019-03-10T19:24:54.620Z,1
2019-03-10T19:29:57.114Z,0
2019-03-10T19:34:59.573Z,0
2019-03-10T19:40:02.056Z,0
2019-03-10T19:45:04.783Z,0
2019-03-10T19:50:07.022Z,1
2019-03-10T19:55:09.412Z,0
2019-03-10T20:00:11.950Z,1
2019-03-10T20:05:14.290Z,1
2019-03-10T20:10:16.765Z,1
2019-03-10T20:15:19.297Z,1
2019-03-10T20:20:21.661Z,0
2019-03-10T20:25:24.155Z,1
2019-03-10T20:30:26.694Z,1
2019-03-10T20:35:29.061Z,0
2019-03-10T20:40:31.548Z,1
2019-03-10T20:45:34.283Z,0
2019-03-10T20:50:36.419Z,0
2019-03-10T20:55:38.882Z,0
2019-03-10T21:00:41.345Z,0
2019-03-10T21:05:43.809Z,0
2019-03-10T21:10:46.371Z,0
2019-03-10T21:15:49.082Z,0
2019-03-10T21:20:51.154Z,0
2019-03-10T21:25:53.636Z,0
2019-03-10T21:30:56.072Z,0
2019-03-10T21:35:58.547Z,0
2019-03-10T21:41:00.996Z,0
2019-03-10T21:46:03.537Z,1
2019-03-10T21:51:05.922Z,1
2019-03-10T21:56:08.395Z,1
2019-03-10T22:01:10.888Z,0
2019-03-10T22:06:13.299Z,1
2019-03-10T22:11:15.761Z,1
2019-03-10T22:16:18.307Z,1
2019-03-10T22:21:20.714Z,1
2019-03-10T22:26:23.135Z,1
2019-03-10T22:31:25.649Z,1
2019-03-10T22:36:28.096Z,1
2019-03-10T22:41:30.627Z,0
2019-03-10T22:46:33.007Z,0
2019-03-10T22:51:35.473Z,0
2019-03-10T22:56:37.941Z,0
2019-03-10T23:01:40.480Z,0
2019-03-10T23:06:42.846Z,0
2019-03-10T23:11:45.303Z,0
2019-03-10T23:16:47.939Z,0
2019-03-10T23:21:50.271Z,1
2019-03-10T23:26:52.695Z,1
2019-03-10T23:31:55.251Z,1
2019-03-10T23:37:02.628Z,1
2019-03-10T23:42:00.098Z,1
2019-03-10T23:47:02.664Z,1
2019-03-10T23:52:05.004Z,1
2019-03-10T23:57:07.483Z,1
